aviador You're here:

KGNB Decoded Metar

in
Report Time2018-01-22 11:50:00
UTC Time2018-01-22 12:11:30
Flight Rules mvfr MVFR
WindCalm
Visibility6437 m
Phenomena:Light Snow
Clouds:Scattered 020 Hf
Overcast 026 Hf
Expected CloudBase > 800 ft AGL from Temp-Dew spread
Ceiling2,600 ft
Temp-15°C
Dew Point-17°C (85% RH)
AAT-18.5°C
QNH1020 hPa
Raw Report
METAR KGNB 221150Z AUTO 00000KT 4SM -SN SCT020 OVC026 M15/M17 A3011
RMK AO2 T11481168 11110 21155=

Extra information for KGNB:More info

Social comments